createdAt,value
2019-01-19T00:02:05.229Z,-2.47
2019-01-19T00:05:29.235Z,-2.44
2019-01-19T00:08:34.619Z,-2.43
2019-01-19T00:11:49.254Z,-2.41
2019-01-19T00:14:51.972Z,-2.39
2019-01-19T00:18:13.664Z,-2.37
2019-01-19T00:21:34.497Z,-2.33
2019-01-19T00:24:49.063Z,-2.32
2019-01-19T00:28:10.113Z,-2.37
2019-01-19T00:31:24.970Z,-2.35
2019-01-19T00:34:36.380Z,-2.38
2019-01-19T00:37:41.940Z,-2.36
2019-01-19T00:41:05.964Z,-2.34
2019-01-19T00:44:28.398Z,-2.31
2019-01-19T00:47:34.035Z,-2.33
2019-01-19T00:50:54.993Z,-2.38
2019-01-19T00:54:06.346Z,-2.35
2019-01-19T00:57:20.930Z,-2.44
2019-01-19T01:00:29.144Z,-2.38
2019-01-19T01:03:37.575Z,-2.37
2019-01-19T01:07:16.926Z,-2.33
2019-01-19T01:10:28.263Z,-2.31
2019-01-19T01:13:39.927Z,-2.40
2019-01-19T01:16:48.855Z,-2.38
2019-01-19T01:20:12.592Z,-2.33
2019-01-19T01:23:21.065Z,-2.28
2019-01-19T01:26:29.719Z,-2.30
2019-01-19T01:29:52.247Z,-2.28
2019-01-19T01:33:19.105Z,-2.17
2019-01-19T01:36:37.007Z,-2.10
2019-01-19T01:39:57.737Z,-2.04
2019-01-19T01:43:15.574Z,-1.95
2019-01-19T01:46:44.246Z,-1.80
2019-01-19T01:49:56.021Z,-1.59
2019-01-19T01:53:23.153Z,-1.46
2019-01-19T01:56:25.123Z,-1.26
2019-01-19T01:59:40.630Z,-1.14
2019-01-19T02:03:04.610Z,-0.96
2019-01-19T02:06:43.848Z,-0.86
2019-01-19T02:09:52.398Z,-0.79
2019-01-19T02:12:57.947Z,-0.72
2019-01-19T02:16:06.160Z,-0.50
2019-01-19T02:19:26.856Z,-0.41
2019-01-19T02:22:50.834Z,-0.29
2019-01-19T02:26:14.153Z,-0.25
2019-01-19T02:29:37.938Z,-0.16
2019-01-19T02:33:03.354Z,-0.21
2019-01-19T02:36:34.284Z,-0.19
2019-01-19T02:39:40.330Z,-0.12
2019-01-19T02:42:54.859Z,-0.05
2019-01-19T02:46:12.816Z,0.08
2019-01-19T02:49:39.456Z,0.02
2019-01-19T02:52:51.159Z,-0.04
2019-01-19T02:55:59.687Z,-0.03
2019-01-19T02:59:14.382Z,0.00
2019-01-19T03:02:43.018Z,0.09
2019-01-19T03:05:56.224Z,0.16
2019-01-19T03:09:23.150Z,0.21
2019-01-19T03:12:31.629Z,0.27
2019-01-19T03:15:49.307Z,0.28
2019-01-19T03:19:10.258Z,0.39
2019-01-19T03:22:28.358Z,0.45
2019-01-19T03:25:59.835Z,0.50
2019-01-19T03:29:14.423Z,0.60
2019-01-19T03:32:35.213Z,0.57
2019-01-19T03:35:40.910Z,0.59
2019-01-19T03:39:06.557Z,0.60
2019-01-19T03:42:33.665Z,0.71
2019-01-19T03:45:48.003Z,0.73
2019-01-19T03:49:12.020Z,0.79
2019-01-19T03:52:29.617Z,0.86
2019-01-19T03:55:44.088Z,0.90
2019-01-19T03:59:07.815Z,0.97
2019-01-19T04:02:35.529Z,0.98
2019-01-19T04:05:41.039Z,0.97
2019-01-19T04:08:55.687Z,0.96
2019-01-19T04:12:21.800Z,0.97
2019-01-19T04:15:48.713Z,0.98
2019-01-19T04:18:57.209Z,0.99
2019-01-19T04:22:02.756Z,0.94
2019-01-19T04:25:11.345Z,0.94
2019-01-19T04:28:14.929Z,1.08
2019-01-19T04:31:17.016Z,1.09
2019-01-19T04:34:19.165Z,1.07
2019-01-19T04:37:21.273Z,1.05
2019-01-19T04:40:23.224Z,1.04
2019-01-19T04:43:25.155Z,1.05
2019-01-19T04:46:27.153Z,0.98
2019-01-19T04:49:29.052Z,0.93
2019-01-19T04:52:30.971Z,0.87
2019-01-19T04:55:32.914Z,0.84
2019-01-19T04:58:34.818Z,0.78
2019-01-19T05:01:38.310Z,0.74
2019-01-19T05:04:40.340Z,0.71
2019-01-19T05:07:42.268Z,0.66
2019-01-19T05:10:44.280Z,0.69
2019-01-19T05:13:46.209Z,0.71
2019-01-19T05:16:48.394Z,0.76
2019-01-19T05:19:50.473Z,0.73
2019-01-19T05:22:52.440Z,0.70
2019-01-19T05:25:54.448Z,0.76
2019-01-19T05:28:56.371Z,0.89
2019-01-19T05:31:58.240Z,1.03
2019-01-19T05:35:00.905Z,1.09
2019-01-19T05:38:02.923Z,1.13
2019-01-19T05:41:04.927Z,1.20
2019-01-19T05:44:06.861Z,1.29
2019-01-19T05:47:08.824Z,1.39
2019-01-19T05:50:17.364Z,1.43
2019-01-19T05:53:19.401Z,1.45
2019-01-19T05:56:21.378Z,1.49
2019-01-19T05:59:23.480Z,1.55
2019-01-19T06:02:27.169Z,1.49
2019-01-19T06:05:29.686Z,1.53
2019-01-19T06:08:31.585Z,1.53
2019-01-19T06:11:33.525Z,1.52
2019-01-19T06:14:35.488Z,1.51
2019-01-19T06:17:37.511Z,1.47
2019-01-19T06:20:41.100Z,1.52
2019-01-19T06:23:43.046Z,1.60
2019-01-19T06:26:44.981Z,1.54
2019-01-19T06:29:47.515Z,1.50
2019-01-19T06:32:49.422Z,1.47
2019-01-19T06:35:51.382Z,1.40
2019-01-19T06:38:53.501Z,1.30
2019-01-19T06:41:55.527Z,1.24
2019-01-19T06:44:58.662Z,1.21
2019-01-19T06:48:01.375Z,1.20
2019-01-19T06:51:03.645Z,1.19
2019-01-19T06:54:05.746Z,1.17
2019-01-19T06:57:07.715Z,1.16
2019-01-19T07:00:17.070Z,1.16
2019-01-19T07:03:19.206Z,1.20
2019-01-19T07:06:21.445Z,1.20
2019-01-19T07:09:24.562Z,1.22
2019-01-19T07:12:26.525Z,1.27
2019-01-19T07:15:28.477Z,1.39
2019-01-19T07:18:30.468Z,1.46
2019-01-19T07:21:32.375Z,1.54
2019-01-19T07:24:34.320Z,1.56
2019-01-19T07:27:36.306Z,1.61
2019-01-19T07:30:38.313Z,1.58
2019-01-19T07:33:40.536Z,1.57
2019-01-19T07:36:42.581Z,1.56
2019-01-19T07:39:44.658Z,1.53
2019-01-19T07:42:48.836Z,1.47
2019-01-19T07:45:50.955Z,1.56
2019-01-19T07:48:52.975Z,1.73
2019-01-19T07:51:54.891Z,1.84
2019-01-19T07:54:56.865Z,1.95
2019-01-19T07:57:59.169Z,2.02
2019-01-19T08:01:01.307Z,2.06
2019-01-19T08:04:03.306Z,2.10
2019-01-19T08:07:06.066Z,2.16
2019-01-19T08:10:13.813Z,2.23
2019-01-19T08:13:15.745Z,2.35
2019-01-19T08:16:17.791Z,2.56
2019-01-19T08:19:19.878Z,2.84
2019-01-19T08:22:21.979Z,2.95
2019-01-19T08:25:24.898Z,3.00
2019-01-19T08:28:26.933Z,2.92
2019-01-19T08:31:28.896Z,2.87
2019-01-19T08:34:30.877Z,2.75
2019-01-19T08:37:32.758Z,2.67
2019-01-19T08:40:34.825Z,2.69
2019-01-19T08:43:38.557Z,2.77
2019-01-19T08:46:40.628Z,2.87
2019-01-19T08:49:42.567Z,2.85
2019-01-19T08:52:44.845Z,2.79
2019-01-19T08:55:46.743Z,2.88
2019-01-19T08:58:48.840Z,2.87
2019-01-19T09:01:51.743Z,3.06
2019-01-19T09:04:54.804Z,3.22
2019-01-19T09:07:56.776Z,3.34
2019-01-19T09:10:58.946Z,3.49
2019-01-19T09:14:00.849Z,3.64
2019-01-19T09:17:02.801Z,3.72
2019-01-19T09:20:08.322Z,3.71
2019-01-19T09:23:22.243Z,3.81
2019-01-19T09:26:24.143Z,3.91
2019-01-19T09:29:26.188Z,3.91
2019-01-19T09:32:28.420Z,3.92
2019-01-19T09:35:30.633Z,4.04
2019-01-19T09:38:32.542Z,4.11
2019-01-19T09:41:34.529Z,4.20
2019-01-19T09:44:36.442Z,4.34
2019-01-19T09:47:38.405Z,4.56
2019-01-19T09:50:41.057Z,4.70
2019-01-19T09:53:43.018Z,4.88
2019-01-19T09:56:45.178Z,5.03
2019-01-19T09:59:47.851Z,5.16
2019-01-19T10:02:49.757Z,5.31
2019-01-19T10:05:51.613Z,5.41
2019-01-19T10:08:53.611Z,5.51
2019-01-19T10:11:55.825Z,5.57
2019-01-19T10:14:57.805Z,5.81
2019-01-19T10:17:59.653Z,5.95
2019-01-19T10:21:02.225Z,5.99
2019-01-19T10:24:04.203Z,6.05
2019-01-19T10:27:06.262Z,6.07
2019-01-19T10:30:20.188Z,5.96
2019-01-19T10:33:22.251Z,5.93
2019-01-19T10:36:24.829Z,5.73
2019-01-19T10:39:26.982Z,5.58
2019-01-19T10:42:28.997Z,5.48
2019-01-19T10:45:30.939Z,5.41
2019-01-19T10:48:33.111Z,5.36
2019-01-19T10:51:35.072Z,5.37
2019-01-19T10:54:36.977Z,5.47
2019-01-19T10:57:38.976Z,5.48
2019-01-19T11:00:40.982Z,5.50
2019-01-19T11:03:42.999Z,5.51
2019-01-19T11:06:44.879Z,5.58
2019-01-19T11:09:47.274Z,5.59
2019-01-19T11:12:49.277Z,5.57
2019-01-19T11:15:51.505Z,5.55
2019-01-19T11:18:53.570Z,5.50
2019-01-19T11:21:55.706Z,5.48
2019-01-19T11:24:57.649Z,5.46
2019-01-19T11:27:59.640Z,5.42
2019-01-19T11:31:01.632Z,5.33
2019-01-19T11:34:08.021Z,5.31
2019-01-19T11:37:13.336Z,5.35
2019-01-19T11:40:17.557Z,5.32
2019-01-19T11:43:19.599Z,5.27
2019-01-19T11:46:21.583Z,5.24
2019-01-19T11:49:24.063Z,5.17
2019-01-19T11:52:26.076Z,5.11
2019-01-19T11:55:28.010Z,5.09
2019-01-19T11:58:30.075Z,5.11
2019-01-19T12:01:32.033Z,5.13
2019-01-19T12:04:33.974Z,5.19
2019-01-19T12:07:35.906Z,5.08
2019-01-19T12:10:38.197Z,4.96
2019-01-19T12:13:40.155Z,4.89
2019-01-19T12:16:42.083Z,4.80
2019-01-19T12:19:44.036Z,4.72
2019-01-19T12:22:46.862Z,4.70
2019-01-19T12:25:49.111Z,4.72
2019-01-19T12:28:51.098Z,4.72
2019-01-19T12:31:53.103Z,4.60
2019-01-19T12:34:55.296Z,4.50
2019-01-19T12:37:58.307Z,4.51
2019-01-19T12:41:00.256Z,4.46
2019-01-19T12:44:02.386Z,4.25
2019-01-19T12:47:04.791Z,4.10
2019-01-19T12:50:13.444Z,4.01
2019-01-19T12:53:15.961Z,4.04
2019-01-19T12:56:18.039Z,4.00
2019-01-19T12:59:20.003Z,4.03
2019-01-19T13:02:22.084Z,3.99
2019-01-19T13:05:43.103Z,3.92
2019-01-19T13:08:45.026Z,3.91
2019-01-19T13:12:06.278Z,3.78
2019-01-19T13:15:25.608Z,3.74
2019-01-19T13:18:57.650Z,3.71
2019-01-19T13:22:24.477Z,3.65
2019-01-19T13:25:36.412Z,3.60
2019-01-19T13:28:44.949Z,3.58
2019-01-19T13:32:08.437Z,3.54
2019-01-19T13:35:32.335Z,3.58
2019-01-19T13:38:46.802Z,3.45
2019-01-19T13:42:18.309Z,3.40
2019-01-19T13:45:23.996Z,3.42
2019-01-19T13:48:32.271Z,3.44
2019-01-19T13:51:43.987Z,3.47
2019-01-19T13:55:09.479Z,3.45
2019-01-19T13:58:21.388Z,3.40
2019-01-19T14:01:38.699Z,3.35
2019-01-19T14:04:47.092Z,3.46
2019-01-19T14:08:02.196Z,3.49
2019-01-19T14:11:08.065Z,3.47
2019-01-19T14:14:41.278Z,3.42
2019-01-19T14:18:12.894Z,3.36
2019-01-19T14:21:24.268Z,3.25
2019-01-19T14:24:38.756Z,3.14
2019-01-19T14:27:56.711Z,3.12
2019-01-19T14:31:08.556Z,3.11
2019-01-19T14:34:16.828Z,3.04
2019-01-19T14:37:48.770Z,2.92
2019-01-19T14:41:09.723Z,2.89
2019-01-19T14:44:31.917Z,2.83
2019-01-19T14:47:43.797Z,2.76
2019-01-19T14:51:13.808Z,2.66
2019-01-19T14:54:31.508Z,2.56
2019-01-19T14:57:56.415Z,2.50
2019-01-19T15:01:20.294Z,2.45
2019-01-19T15:04:25.981Z,2.36
2019-01-19T15:07:34.601Z,2.23
2019-01-19T15:10:57.142Z,2.16
2019-01-19T15:14:12.269Z,2.10
2019-01-19T15:17:32.514Z,1.93
2019-01-19T15:20:40.924Z,1.85
2019-01-19T15:23:58.694Z,1.78
2019-01-19T15:27:16.374Z,1.77
2019-01-19T15:30:24.712Z,1.71
2019-01-19T15:33:48.685Z,1.64
2019-01-19T15:37:14.226Z,1.59
2019-01-19T15:40:23.100Z,1.51
2019-01-19T15:43:34.968Z,1.40
2019-01-19T15:47:07.646Z,1.40
2019-01-19T15:50:25.266Z,1.38
2019-01-19T15:53:40.041Z,1.25
2019-01-19T15:56:57.657Z,1.19
2019-01-19T16:00:19.796Z,1.11
2019-01-19T16:03:25.379Z,1.07
2019-01-19T16:06:31.381Z,1.03
2019-01-19T16:09:42.897Z,1.05
2019-01-19T16:13:07.937Z,1.02
2019-01-19T16:16:22.601Z,0.94
2019-01-19T16:19:42.052Z,0.83
2019-01-19T16:23:17.471Z,0.75
2019-01-19T16:26:26.024Z,0.67
2019-01-19T16:29:31.569Z,0.50
2019-01-19T16:32:46.827Z,0.50
2019-01-19T16:36:01.668Z,0.47
2019-01-19T16:39:25.525Z,0.46
2019-01-19T16:42:40.474Z,0.43
2019-01-19T16:46:10.328Z,0.35
2019-01-19T16:49:24.931Z,0.29
2019-01-19T16:52:30.629Z,0.20
2019-01-19T16:55:39.000Z,0.18
2019-01-19T16:58:47.439Z,0.22
2019-01-19T17:02:16.682Z,0.27
2019-01-19T17:05:46.259Z,0.25
2019-01-19T17:09:10.973Z,0.16
2019-01-19T17:12:19.303Z,0.12
2019-01-19T17:15:27.529Z,0.02
2019-01-19T17:18:41.224Z,0.01
2019-01-19T17:22:14.327Z,0.01
2019-01-19T17:25:29.728Z,-0.07
2019-01-19T17:28:35.279Z,-0.19
2019-01-19T17:31:40.910Z,-0.24
2019-01-19T17:34:55.469Z,-0.24
2019-01-19T17:38:02.249Z,-0.28
2019-01-19T17:41:41.294Z,-0.33
2019-01-19T17:45:20.975Z,-0.36
2019-01-19T17:48:38.555Z,-0.50
2019-01-19T17:52:19.036Z,-0.60
2019-01-19T17:55:30.495Z,-0.61
2019-01-19T17:58:40.180Z,-0.65
2019-01-19T18:01:48.682Z,-0.63
2019-01-19T18:05:13.216Z,-0.61
2019-01-19T18:08:28.090Z,-0.60
2019-01-19T18:11:43.503Z,-0.65
2019-01-19T18:15:15.143Z,-0.65
2019-01-19T18:18:47.406Z,-0.70
2019-01-19T18:22:20.533Z,-0.73
2019-01-19T18:25:46.156Z,-0.76
2019-01-19T18:29:15.238Z,-0.82
2019-01-19T18:32:20.900Z,-0.83
2019-01-19T18:35:38.577Z,-0.88
2019-01-19T18:38:48.021Z,-0.90
2019-01-19T18:42:13.390Z,-0.87
2019-01-19T18:45:35.335Z,-0.87
2019-01-19T18:48:56.371Z,-0.92
2019-01-19T18:52:20.633Z,-1.00
2019-01-19T18:55:29.082Z,-1.05
2019-01-19T18:58:37.804Z,-1.12
2019-01-19T19:02:06.804Z,-1.04
2019-01-19T19:05:18.238Z,-1.01
2019-01-19T19:08:40.072Z,-1.05
2019-01-19T19:11:49.611Z,-1.03
2019-01-19T19:14:55.453Z,-1.04
2019-01-19T19:18:20.815Z,-1.03
2019-01-19T19:21:32.456Z,-0.99
2019-01-19T19:24:56.176Z,-1.07
2019-01-19T19:28:08.616Z,-1.10
2019-01-19T19:31:31.079Z,-1.16
2019-01-19T19:34:53.461Z,-1.17
2019-01-19T19:38:02.189Z,-1.20
2019-01-19T19:41:10.881Z,-1.25
2019-01-19T19:44:22.486Z,-1.26
2019-01-19T19:47:52.877Z,-1.27
2019-01-19T19:51:14.082Z,-1.29
2019-01-19T19:54:16.303Z,-1.36
2019-01-19T19:57:22.077Z,-1.42
2019-01-19T20:00:24.724Z,-1.36
2019-01-19T20:03:26.812Z,-1.37
2019-01-19T20:06:33.136Z,-1.33
2019-01-19T20:09:37.058Z,-1.31
2019-01-19T20:12:41.818Z,-1.38
2019-01-19T20:15:43.758Z,-1.37
2019-01-19T20:18:45.719Z,-1.39
2019-01-19T20:21:47.671Z,-1.43
2019-01-19T20:24:49.996Z,-1.44
2019-01-19T20:27:52.020Z,-1.48
2019-01-19T20:30:57.658Z,-1.51
2019-01-19T20:33:59.951Z,-1.56
2019-01-19T20:37:03.334Z,-1.57
2019-01-19T20:40:09.553Z,-1.59
2019-01-19T20:43:11.597Z,-1.62
2019-01-19T20:46:14.784Z,-1.67
2019-01-19T20:49:19.322Z,-1.71
2019-01-19T20:52:28.088Z,-1.75
2019-01-19T20:55:30.072Z,-1.78
2019-01-19T20:58:33.718Z,-1.84
2019-01-19T21:01:36.336Z,-1.88
2019-01-19T21:04:38.253Z,-1.89
2019-01-19T21:07:40.319Z,-1.89
2019-01-19T21:10:42.622Z,-1.88
2019-01-19T21:13:46.069Z,-1.90
2019-01-19T21:16:47.941Z,-1.91
2019-01-19T21:19:50.725Z,-1.96
2019-01-19T21:22:52.947Z,-1.99
2019-01-19T21:25:55.287Z,-2.00
2019-01-19T21:28:57.229Z,-2.04
2019-01-19T21:32:01.200Z,-2.06
2019-01-19T21:35:05.643Z,-2.07
2019-01-19T21:38:07.581Z,-2.04
2019-01-19T21:41:10.323Z,-2.00
2019-01-19T21:44:12.245Z,-2.04
2019-01-19T21:47:14.444Z,-2.06
2019-01-19T21:50:17.193Z,-2.11
2019-01-19T21:53:19.126Z,-2.11
2019-01-19T21:56:21.450Z,-2.14
2019-01-19T21:59:26.095Z,-2.18
2019-01-19T22:02:28.229Z,-2.20
2019-01-19T22:05:31.119Z,-2.20
2019-01-19T22:08:35.223Z,-2.21
2019-01-19T22:11:37.274Z,-2.20
2019-01-19T22:14:39.752Z,-2.17
2019-01-19T22:17:41.645Z,-2.14
2019-01-19T22:20:43.664Z,-2.18
2019-01-19T22:23:47.371Z,-2.15
2019-01-19T22:26:51.116Z,-2.17
2019-01-19T22:29:53.058Z,-2.17
2019-01-19T22:32:55.348Z,-2.18
2019-01-19T22:35:57.223Z,-2.20
2019-01-19T22:38:59.304Z,-2.23
2019-01-19T22:42:01.343Z,-2.31
2019-01-19T22:45:06.905Z,-2.39
2019-01-19T22:48:08.776Z,-2.43
2019-01-19T22:51:11.391Z,-2.46
2019-01-19T22:54:13.819Z,-2.52
2019-01-19T22:57:15.819Z,-2.51
2019-01-19T23:00:26.372Z,-2.55
2019-01-19T23:03:31.504Z,-2.58
2019-01-19T23:06:33.448Z,-2.66
2019-01-19T23:09:35.391Z,-2.69
2019-01-19T23:12:37.327Z,-2.74
2019-01-19T23:15:39.687Z,-2.73
2019-01-19T23:18:41.624Z,-2.75
2019-01-19T23:21:43.593Z,-2.77
2019-01-19T23:24:45.635Z,-2.78
2019-01-19T23:27:47.606Z,-2.82
2019-01-19T23:30:49.491Z,-2.81
2019-01-19T23:33:51.435Z,-2.81
2019-01-19T23:36:53.359Z,-2.85
2019-01-19T23:39:55.300Z,-2.91
2019-01-19T23:42:57.340Z,-3.07
2019-01-19T23:45:59.278Z,-3.07
2019-01-19T23:49:01.180Z,-3.13
2019-01-19T23:52:03.227Z,-3.10
2019-01-19T23:55:05.503Z,-3.15
2019-01-19T23:58:08.226Z,-3.20
